createdAt,value
2023-01-23T00:01:36.363Z,99644.69
2023-01-23T00:04:05.265Z,99644.25
2023-01-23T00:06:35.284Z,99644.25
2023-01-23T00:09:03.484Z,99650.16
2023-01-23T00:11:32.112Z,99646.25
2023-01-23T00:14:01.611Z,99651.31
2023-01-23T00:16:32.560Z,99659.13
2023-01-23T00:19:01.300Z,99682.13
2023-01-23T00:21:31.075Z,99676.72
2023-01-23T00:24:02.726Z,99674.88
2023-01-23T00:26:33.584Z,99673.34
2023-01-23T00:29:02.173Z,99672.88
2023-01-23T00:31:32.462Z,99685.41
2023-01-23T00:34:02.180Z,99684.22
2023-01-23T00:36:32.010Z,99685.34
2023-01-23T00:39:01.621Z,99697.00
2023-01-23T00:41:29.718Z,99696.28
2023-01-23T00:43:57.839Z,99695.50
2023-01-23T00:46:26.354Z,99693.50
2023-01-23T00:48:54.493Z,99698.72
2023-01-23T00:51:22.974Z,99699.84
2023-01-23T00:53:51.411Z,99695.16
2023-01-23T00:56:20.986Z,99705.63
2023-01-23T00:58:49.029Z,99700.63
2023-01-23T01:01:18.189Z,99704.28
2023-01-23T01:03:46.996Z,99699.06
2023-01-23T01:06:17.674Z,99712.00
2023-01-23T01:08:45.785Z,99704.28
2023-01-23T01:11:13.920Z,99713.97
2023-01-23T01:13:44.523Z,99718.63
2023-01-23T01:16:13.157Z,99722.84
2023-01-23T01:18:41.364Z,99714.34
2023-01-23T01:21:10.914Z,99712.69
2023-01-23T01:23:39.990Z,99711.16
2023-01-23T01:26:08.742Z,99713.19
2023-01-23T01:28:38.172Z,99719.13
2023-01-23T01:31:10.520Z,99712.78
2023-01-23T01:33:39.225Z,99715.47
2023-01-23T01:36:10.672Z,99725.28
2023-01-23T01:38:39.820Z,99725.59
2023-01-23T01:41:08.793Z,99728.31
2023-01-23T01:43:37.774Z,99722.81
2023-01-23T01:46:21.155Z,99724.44
2023-01-23T01:48:55.725Z,99724.75
2023-01-23T01:51:30.005Z,99717.22
2023-01-23T01:54:04.676Z,99718.94
2023-01-23T01:56:37.659Z,99709.94
2023-01-23T01:59:07.368Z,99713.50
2023-01-23T02:01:37.413Z,99707.31
2023-01-23T02:04:08.972Z,99712.41
2023-01-23T02:06:37.258Z,99712.00
2023-01-23T02:09:12.064Z,99716.81
2023-01-23T02:11:40.385Z,99726.47
2023-01-23T02:14:08.778Z,99729.59
2023-01-23T02:16:43.814Z,99723.31
2023-01-23T02:19:25.785Z,99723.41
2023-01-23T02:22:02.463Z,99726.88
2023-01-23T02:24:37.162Z,99736.66
2023-01-23T02:27:07.434Z,99740.53
2023-01-23T02:29:44.190Z,99738.22
2023-01-23T02:32:12.720Z,99745.53
2023-01-23T02:34:41.311Z,99735.38
2023-01-23T02:37:10.364Z,99731.38
2023-01-23T02:39:39.659Z,99721.72
2023-01-23T02:42:11.326Z,99718.63
2023-01-23T02:44:45.808Z,99727.22
2023-01-23T02:47:15.765Z,99726.50
2023-01-23T02:49:44.186Z,99726.72
2023-01-23T02:52:12.553Z,99736.97
2023-01-23T02:54:40.889Z,99741.28
2023-01-23T02:57:10.880Z,99744.34
2023-01-23T02:59:57.573Z,99739.25
2023-01-23T03:02:27.106Z,99745.91
2023-01-23T03:04:55.492Z,99757.25
2023-01-23T03:07:23.536Z,99744.78
2023-01-23T03:09:51.615Z,99752.94
2023-01-23T03:12:22.275Z,99758.41
2023-01-23T03:14:54.293Z,99756.53
2023-01-23T03:17:22.788Z,99754.13
2023-01-23T03:19:51.097Z,99755.94
2023-01-23T03:22:19.342Z,99758.66
2023-01-23T03:24:47.376Z,99753.13
2023-01-23T03:27:15.911Z,99757.41
2023-01-23T03:30:07.434Z,99754.66
2023-01-23T03:32:36.741Z,99765.25
2023-01-23T03:35:05.178Z,99772.75
2023-01-23T03:37:33.362Z,99766.88
2023-01-23T03:40:20.280Z,99764.50
2023-01-23T03:42:48.972Z,99761.31
2023-01-23T03:45:25.844Z,99766.75
2023-01-23T03:47:54.093Z,99774.91
2023-01-23T03:50:22.473Z,99786.28
2023-01-23T03:52:50.772Z,99776.13
2023-01-23T03:55:19.329Z,99777.25
2023-01-23T03:57:48.390Z,99776.44
2023-01-23T04:00:20.086Z,99779.59
2023-01-23T04:02:57.622Z,99792.47
2023-01-23T04:05:26.004Z,99793.66
2023-01-23T04:07:54.094Z,99794.47
2023-01-23T04:10:22.499Z,99802.31
2023-01-23T04:12:55.046Z,99802.69
2023-01-23T04:15:24.060Z,99803.81
2023-01-23T04:17:54.762Z,99799.91
2023-01-23T04:20:26.534Z,99788.63
2023-01-23T04:22:55.452Z,99801.91
2023-01-23T04:25:24.068Z,99796.50
2023-01-23T04:27:52.155Z,99793.34
2023-01-23T04:30:21.705Z,99801.97
2023-01-23T04:32:49.975Z,99807.78
2023-01-23T04:35:20.133Z,99808.16
2023-01-23T04:37:50.000Z,99813.22
2023-01-23T04:40:18.882Z,99824.09
2023-01-23T04:42:57.194Z,99819.03
2023-01-23T04:45:38.075Z,99822.63
2023-01-23T04:48:25.974Z,99823.78
2023-01-23T04:50:54.980Z,99815.91
2023-01-23T04:53:24.631Z,99816.31
2023-01-23T04:55:59.362Z,99822.53
2023-01-23T04:58:27.754Z,99823.69
2023-01-23T05:01:03.791Z,99829.97
2023-01-23T05:03:35.270Z,99821.44
2023-01-23T05:06:03.631Z,99814.09
2023-01-23T05:08:33.261Z,99825.75
2023-01-23T05:11:14.090Z,99833.63
2023-01-23T05:13:42.392Z,99820.63
2023-01-23T05:16:10.739Z,99825.72
2023-01-23T05:18:58.932Z,99814.41
2023-01-23T05:21:27.937Z,99816.09
2023-01-23T05:23:57.386Z,99820.81
2023-01-23T05:26:25.997Z,99828.97
2023-01-23T05:28:55.767Z,99818.75
2023-01-23T05:31:24.159Z,99812.47
2023-01-23T05:34:12.204Z,99818.16
2023-01-23T05:36:41.397Z,99826.69
2023-01-23T05:39:11.639Z,99837.16
2023-01-23T05:41:39.857Z,99842.66
2023-01-23T05:44:36.992Z,99845.72
2023-01-23T05:47:10.759Z,99853.94
2023-01-23T05:49:39.360Z,99855.06
2023-01-23T05:52:07.966Z,99857.47
2023-01-23T05:54:37.582Z,99860.97
2023-01-23T05:57:05.896Z,99857.09
2023-01-23T05:59:52.656Z,99863.66
2023-01-23T06:02:39.677Z,99876.56
2023-01-23T06:05:08.932Z,99871.06
2023-01-23T06:07:57.049Z,99878.13
2023-01-23T06:10:26.647Z,99883.56
2023-01-23T06:12:54.746Z,99893.25
2023-01-23T06:15:23.943Z,99893.66
2023-01-23T06:17:55.511Z,99892.50
2023-01-23T06:20:25.279Z,99903.41
2023-01-23T06:22:53.491Z,99904.22
2023-01-23T06:25:22.993Z,99895.63
2023-01-23T06:27:55.338Z,99895.63
2023-01-23T06:30:25.515Z,99901.44
2023-01-23T06:32:53.749Z,99894.41
2023-01-23T06:35:28.491Z,99897.22
2023-01-23T06:37:56.837Z,99898.78
2023-01-23T06:40:25.710Z,99904.66
2023-01-23T06:43:22.856Z,99908.50
2023-01-23T06:45:52.331Z,99906.56
2023-01-23T06:48:20.925Z,99906.97
2023-01-23T06:50:49.819Z,99909.69
2023-01-23T06:53:19.181Z,99905.38
2023-01-23T06:55:49.076Z,99911.59
2023-01-23T06:58:18.823Z,99914.38
2023-01-23T07:00:48.501Z,99914.72
2023-01-23T07:03:36.689Z,99914.75
2023-01-23T07:06:07.155Z,99920.59
2023-01-23T07:08:36.188Z,99922.59
2023-01-23T07:11:04.801Z,99917.88
2023-01-23T07:13:33.672Z,99919.94
2023-01-23T07:16:04.092Z,99928.47
2023-01-23T07:18:33.302Z,99927.25
2023-01-23T07:21:06.116Z,99928.38
2023-01-23T07:23:34.840Z,99928.03
2023-01-23T07:26:04.720Z,99925.69
2023-01-23T07:28:34.074Z,99929.53
2023-01-23T07:31:04.322Z,99928.56
2023-01-23T07:33:33.201Z,99935.97
2023-01-23T07:36:01.325Z,99935.06
2023-01-23T07:38:29.487Z,99934.75
2023-01-23T07:41:00.317Z,99940.09
2023-01-23T07:43:28.790Z,99936.53
2023-01-23T07:46:00.969Z,99937.41
2023-01-23T07:48:30.937Z,99938.66
2023-01-23T07:51:03.035Z,99950.31
2023-01-23T07:53:32.084Z,99959.22
2023-01-23T07:56:00.521Z,99964.31
2023-01-23T07:58:28.813Z,99961.16
2023-01-23T08:00:56.870Z,99965.41
2023-01-23T08:03:29.295Z,99965.88
2023-01-23T08:05:59.814Z,99969.72
2023-01-23T08:08:27.952Z,99973.53
2023-01-23T08:10:56.005Z,99975.88
2023-01-23T08:13:24.260Z,99970.00
2023-01-23T08:15:53.471Z,99979.06
2023-01-23T08:18:21.731Z,99976.72
2023-01-23T08:20:54.848Z,99973.63
2023-01-23T08:23:25.717Z,99972.69
2023-01-23T08:25:54.906Z,99966.44
2023-01-23T08:28:23.608Z,99969.97
2023-01-23T08:30:52.561Z,99970.91
2023-01-23T08:33:21.425Z,99972.78
2023-01-23T08:35:51.087Z,99973.88
2023-01-23T08:38:20.585Z,99975.84
2023-01-23T08:40:51.298Z,99983.31
2023-01-23T08:43:20.727Z,99979.84
2023-01-23T08:45:51.336Z,99991.66
2023-01-23T08:48:20.448Z,99988.41
2023-01-23T08:50:48.703Z,99990.44
2023-01-23T08:53:17.746Z,99979.88
2023-01-23T08:55:45.854Z,99990.69
2023-01-23T08:58:15.383Z,99989.59
2023-01-23T09:00:43.557Z,99996.53
2023-01-23T09:03:11.674Z,99997.31
2023-01-23T09:05:39.846Z,99994.63
2023-01-23T09:08:07.920Z,99989.63
2023-01-23T09:10:36.501Z,99995.75
2023-01-23T09:13:05.296Z,99996.91
2023-01-23T09:15:34.803Z,99995.00
2023-01-23T09:18:02.826Z,99991.78
2023-01-23T09:20:31.029Z,99990.03
2023-01-23T09:22:59.102Z,99979.78
2023-01-23T09:25:27.224Z,99973.72
2023-01-23T09:27:55.332Z,99952.47
2023-01-23T09:30:23.687Z,99948.56
2023-01-23T09:32:54.802Z,99944.28
2023-01-23T09:35:23.587Z,99953.63
2023-01-23T09:38:00.929Z,99947.78
2023-01-23T09:40:32.175Z,99941.16
2023-01-23T09:43:03.955Z,99935.72
2023-01-23T09:45:33.874Z,99937.94
2023-01-23T09:48:14.723Z,99949.34
2023-01-23T09:50:55.522Z,99948.97
2023-01-23T09:53:26.937Z,99958.97
2023-01-23T09:56:01.152Z,99946.44
2023-01-23T09:58:36.340Z,99953.75
2023-01-23T10:01:04.686Z,99964.16
2023-01-23T10:03:34.247Z,99958.66
2023-01-23T10:06:14.128Z,99971.84
2023-01-23T10:08:58.701Z,99970.84
2023-01-23T10:11:36.795Z,99968.47
2023-01-23T10:14:21.105Z,99971.53
2023-01-23T10:17:03.214Z,99960.00
2023-01-23T10:19:48.784Z,99959.88
2023-01-23T10:22:33.714Z,99959.50
2023-01-23T10:25:04.924Z,99962.44
2023-01-23T10:27:38.374Z,99972.56
2023-01-23T10:30:17.393Z,99972.22
2023-01-23T10:32:50.619Z,99967.75
2023-01-23T10:35:24.982Z,99972.31
2023-01-23T10:38:01.902Z,99964.16
2023-01-23T10:40:47.316Z,99965.56
2023-01-23T10:43:17.725Z,99961.25
2023-01-23T10:45:47.376Z,99951.03
2023-01-23T10:48:49.611Z,99951.44
2023-01-23T10:51:33.745Z,99948.94
2023-01-23T10:54:29.612Z,99956.34
2023-01-23T10:57:01.260Z,99944.31
2023-01-23T10:59:33.263Z,99946.53
2023-01-23T11:02:20.932Z,99943.63
2023-01-23T11:04:51.840Z,99945.75
2023-01-23T11:07:23.417Z,99937.44
2023-01-23T11:09:55.036Z,99931.56
2023-01-23T11:12:24.803Z,99933.50
2023-01-23T11:15:11.878Z,99930.13
2023-01-23T11:17:40.577Z,99930.56
2023-01-23T11:20:13.630Z,99918.16
2023-01-23T11:22:43.293Z,99918.78
2023-01-23T11:25:37.952Z,99922.72
2023-01-23T11:28:23.484Z,99919.50
2023-01-23T11:31:12.428Z,99919.78
2023-01-23T11:33:47.918Z,99918.44
2023-01-23T11:36:36.094Z,99908.81
2023-01-23T11:39:17.776Z,99910.84
2023-01-23T11:41:47.406Z,99909.25
2023-01-23T11:44:19.133Z,99917.09
2023-01-23T11:47:13.667Z,99915.09
2023-01-23T11:50:02.417Z,99915.19
2023-01-23T11:52:47.927Z,99914.41
2023-01-23T11:55:42.745Z,99909.81
2023-01-23T11:58:24.378Z,99908.03
2023-01-23T12:01:06.875Z,99912.88
2023-01-23T12:03:59.367Z,99903.81
2023-01-23T12:06:40.558Z,99907.19
2023-01-23T12:09:14.252Z,99906.78
2023-01-23T12:11:58.460Z,99904.50
2023-01-23T12:14:32.136Z,99902.50
2023-01-23T12:17:13.858Z,99899.06
2023-01-23T12:20:08.639Z,99909.56
2023-01-23T12:22:52.106Z,99905.75
2023-01-23T12:25:31.062Z,99909.50
2023-01-23T12:28:07.130Z,99905.25
2023-01-23T12:31:02.608Z,99900.41
2023-01-23T12:34:02.934Z,99914.19
2023-01-23T12:37:14.180Z,99911.25
2023-01-23T12:40:08.451Z,99907.22
2023-01-23T12:42:43.521Z,99909.22
2023-01-23T12:45:21.838Z,99903.88
2023-01-23T12:47:56.667Z,99904.16
2023-01-23T12:50:38.686Z,99905.88
2023-01-23T12:53:11.008Z,99912.91
2023-01-23T12:55:44.419Z,99911.25
2023-01-23T12:58:17.262Z,99912.84
2023-01-23T13:00:56.046Z,99918.00
2023-01-23T13:03:46.115Z,99918.69
2023-01-23T13:06:47.277Z,99910.69
2023-01-23T13:09:25.822Z,99909.75
2023-01-23T13:12:11.613Z,99916.06
2023-01-23T13:15:06.840Z,99914.66
2023-01-23T13:17:39.130Z,99919.72
2023-01-23T13:20:48.449Z,99912.22
2023-01-23T13:23:29.687Z,99921.25
2023-01-23T13:26:30.016Z,99912.13
2023-01-23T13:29:02.325Z,99914.41
2023-01-23T13:31:41.447Z,99922.19
2023-01-23T13:34:41.656Z,99927.72
2023-01-23T13:37:47.115Z,99926.41
2023-01-23T13:40:17.678Z,99925.97
2023-01-23T13:42:46.314Z,99926.97
2023-01-23T13:45:28.713Z,99923.84
2023-01-23T14:22:38.089Z,99941.16
2023-01-23T14:25:17.659Z,99947.00
2023-01-23T14:27:54.439Z,99950.13
2023-01-23T14:30:26.943Z,99941.94
2023-01-23T14:33:18.859Z,99957.59
2023-01-23T14:35:48.042Z,99953.84
2023-01-23T14:38:23.265Z,99956.53
2023-01-23T14:40:52.930Z,99959.47
2023-01-23T14:43:23.959Z,99956.66
2023-01-23T14:45:59.702Z,99953.03
2023-01-23T14:48:29.202Z,99957.91
2023-01-23T14:51:06.430Z,99946.13
2023-01-23T14:53:34.603Z,99952.72
2023-01-23T14:56:04.215Z,99946.81
2023-01-23T14:58:33.998Z,99951.38
2023-01-23T15:01:03.175Z,99952.59
2023-01-23T15:03:43.129Z,99951.81
2023-01-23T15:06:16.894Z,99944.47
2023-01-23T15:08:45.400Z,99957.47
2023-01-23T15:11:15.504Z,99954.72
2023-01-23T15:13:54.811Z,99953.47
2023-01-23T15:16:25.014Z,99950.34
2023-01-23T15:18:58.619Z,99968.50
2023-01-23T15:21:30.161Z,99964.91
2023-01-23T15:24:04.487Z,99965.28
2023-01-23T15:26:36.627Z,99964.06
2023-01-23T15:29:19.419Z,99970.75
2023-01-23T15:31:50.283Z,99964.16
2023-01-23T15:34:25.881Z,99961.34
2023-01-23T15:36:57.888Z,99967.97
2023-01-23T15:39:29.560Z,99960.22
2023-01-23T15:42:02.273Z,99970.28
2023-01-23T15:44:32.117Z,99971.50
2023-01-23T15:47:03.923Z,99976.56
2023-01-23T15:49:33.639Z,99969.09
2023-01-23T15:52:03.999Z,99968.63
2023-01-23T15:54:34.682Z,99965.91
2023-01-23T15:57:08.707Z,99974.25
2023-01-23T15:59:38.094Z,99973.81
2023-01-23T16:02:12.927Z,99979.28
2023-01-23T16:04:47.339Z,99979.25
2023-01-23T16:07:24.617Z,99975.75
2023-01-23T16:09:55.179Z,99985.94
2023-01-23T16:12:29.747Z,99985.06
2023-01-23T16:14:58.366Z,99976.53
2023-01-23T16:17:26.534Z,99985.41
2023-01-23T16:19:55.657Z,99989.81
2023-01-23T16:22:29.212Z,99988.69
2023-01-23T16:24:58.950Z,99983.28
2023-01-23T16:27:28.545Z,99995.69
2023-01-23T16:29:57.402Z,99996.94
2023-01-23T16:32:26.225Z,99994.25
2023-01-23T16:34:54.451Z,99998.09
2023-01-23T16:37:22.868Z,99999.28
2023-01-23T16:39:51.115Z,99999.69
2023-01-23T16:42:22.414Z,100000.50
2023-01-23T16:44:52.375Z,99993.81
2023-01-23T16:47:20.571Z,100002.38
2023-01-23T16:49:53.748Z,100000.75
2023-01-23T16:52:26.469Z,99998.50
2023-01-23T16:54:55.817Z,100002.78
2023-01-23T16:57:24.789Z,100001.59
2023-01-23T16:59:56.523Z,100000.91
2023-01-23T17:02:30.412Z,100003.56
2023-01-23T17:04:58.847Z,100006.78
2023-01-23T17:07:26.952Z,100007.47
2023-01-23T17:09:55.018Z,100000.16
2023-01-23T17:12:27.651Z,100003.97
2023-01-23T17:14:58.235Z,100002.41
2023-01-23T17:17:31.224Z,100001.69
2023-01-23T17:20:01.347Z,100002.81
2023-01-23T17:22:31.575Z,100002.44
2023-01-23T17:25:00.043Z,99998.84
2023-01-23T17:27:28.087Z,100001.28
2023-01-23T17:29:57.597Z,100005.22
2023-01-23T17:32:31.615Z,100008.72
2023-01-23T17:35:02.776Z,100003.25
2023-01-23T17:37:31.874Z,100013.72
2023-01-23T17:40:00.024Z,100009.13
2023-01-23T17:42:28.281Z,100012.59
2023-01-23T17:44:57.937Z,100012.22
2023-01-23T17:47:26.245Z,100017.34
2023-01-23T17:49:55.502Z,100018.50
2023-01-23T17:52:25.025Z,100021.63
2023-01-23T17:54:54.482Z,100020.13
2023-01-23T17:57:22.884Z,100018.84
2023-01-23T17:59:51.042Z,100015.38
2023-01-23T18:02:29.091Z,100016.97
2023-01-23T18:04:57.504Z,100015.34
2023-01-23T18:07:25.619Z,100023.13
2023-01-23T18:09:59.424Z,100016.97
2023-01-23T18:12:35.097Z,100024.38
2023-01-23T18:15:12.422Z,100024.81
2023-01-23T18:17:48.715Z,100025.53
2023-01-23T18:20:21.745Z,100026.75
2023-01-23T18:22:51.080Z,100027.09
2023-01-23T18:25:21.823Z,100020.81
2023-01-23T18:27:55.168Z,100032.53
2023-01-23T18:30:46.097Z,100026.63
2023-01-23T18:33:37.566Z,100018.03
2023-01-23T18:36:19.614Z,100037.75
2023-01-23T18:39:07.190Z,100036.09
2023-01-23T18:41:35.815Z,100034.13
2023-01-23T18:44:08.648Z,100034.13
2023-01-23T18:46:37.350Z,100029.47
2023-01-23T18:49:07.391Z,100032.22
2023-01-23T18:51:40.631Z,100026.31
2023-01-23T18:54:21.077Z,100029.44
2023-01-23T18:56:58.968Z,100026.34
2023-01-23T18:59:36.821Z,100034.50
2023-01-23T19:02:22.152Z,100031.41
2023-01-23T19:05:02.234Z,100031.81
2023-01-23T19:07:30.669Z,100037.28
2023-01-23T19:09:59.366Z,100032.69
2023-01-23T19:12:35.826Z,100033.06
2023-01-23T19:15:20.050Z,100039.63
2023-01-23T19:17:52.385Z,100033.09
2023-01-23T19:20:27.521Z,100039.31
2023-01-23T19:23:27.493Z,100033.00
2023-01-23T19:25:56.105Z,100037.28
2023-01-23T19:28:24.824Z,100036.91
2023-01-23T19:30:53.501Z,100041.19
2023-01-23T19:33:22.187Z,100040.00
2023-01-23T19:35:54.982Z,100041.16
2023-01-23T19:38:23.647Z,100029.88
2023-01-23T19:40:51.884Z,100038.47
2023-01-23T19:43:20.325Z,100045.13
2023-01-23T19:45:48.732Z,100042.31
2023-01-23T19:48:16.862Z,100045.47
2023-01-23T19:50:45.235Z,100043.94
2023-01-23T19:53:17.046Z,100035.69
2023-01-23T19:55:45.254Z,100042.72
2023-01-23T19:58:13.353Z,100043.09
2023-01-23T20:00:41.594Z,100044.31
2023-01-23T20:03:13.841Z,100040.00
2023-01-23T20:05:42.007Z,100046.63
2023-01-23T20:08:10.315Z,100049.03
2023-01-23T20:10:39.995Z,100042.34
2023-01-23T20:13:08.800Z,100048.63
2023-01-23T20:15:36.931Z,100043.13
2023-01-23T20:18:05.342Z,100049.03
2023-01-23T20:20:33.679Z,100041.56
2023-01-23T20:23:01.806Z,100042.72
2023-01-23T20:25:29.989Z,100047.34
2023-01-23T20:27:59.554Z,100050.09
2023-01-23T20:30:33.018Z,100057.09
2023-01-23T20:33:05.397Z,100043.03
2023-01-23T20:35:33.623Z,100042.97
2023-01-23T20:38:01.696Z,100045.38
2023-01-23T20:40:29.809Z,100050.16
2023-01-23T20:42:59.266Z,100048.53
2023-01-23T20:45:27.500Z,100042.28
2023-01-23T20:47:58.010Z,100050.13
2023-01-23T20:50:26.285Z,100047.03
2023-01-23T20:53:11.413Z,100054.78
2023-01-23T20:55:39.483Z,100056.78
2023-01-23T20:58:26.612Z,100058.31
2023-01-23T21:00:54.760Z,100065.78
2023-01-23T21:03:22.819Z,100056.75
2023-01-23T21:05:50.970Z,100063.75
2023-01-23T21:08:19.074Z,100060.25
2023-01-23T21:10:47.143Z,100062.84
2023-01-23T21:13:16.742Z,100055.53
2023-01-23T21:15:44.867Z,100054.31
2023-01-23T21:18:13.053Z,100059.00
2023-01-23T21:20:41.147Z,100070.66
2023-01-23T21:23:09.368Z,100055.06
2023-01-23T21:25:55.295Z,100067.81
2023-01-23T21:28:39.399Z,100058.09
2023-01-23T21:31:23.419Z,100058.50
2023-01-23T21:33:56.889Z,100058.16
2023-01-23T21:36:29.844Z,100070.25
2023-01-23T21:38:58.846Z,100067.88
2023-01-23T21:41:26.974Z,100072.72
2023-01-23T21:44:10.039Z,100070.00
2023-01-23T21:46:48.420Z,100066.47
2023-01-23T21:49:16.738Z,100068.09
2023-01-23T21:51:45.793Z,100072.41
2023-01-23T21:54:13.985Z,100067.72
2023-01-23T21:56:42.030Z,100072.38
2023-01-23T21:59:12.357Z,100070.44
2023-01-23T22:01:42.756Z,100066.13
2023-01-23T22:04:12.808Z,100061.44
2023-01-23T22:06:46.119Z,100063.75
2023-01-23T22:09:23.933Z,100060.25
2023-01-23T22:11:54.305Z,100068.44
2023-01-23T22:14:24.102Z,100055.19
2023-01-23T22:16:52.428Z,100057.13
2023-01-23T22:19:25.332Z,100059.88
2023-01-23T22:21:54.857Z,100057.91
2023-01-23T22:24:23.086Z,100041.09
2023-01-23T22:26:51.192Z,100049.28
2023-01-23T22:29:19.338Z,100053.63
2023-01-23T22:31:48.928Z,100052.84
2023-01-23T22:34:17.115Z,100062.19
2023-01-23T22:36:45.148Z,100061.88
2023-01-23T22:39:16.184Z,100064.59
2023-01-23T22:41:46.242Z,100065.41
2023-01-23T22:44:15.129Z,100064.94
2023-01-23T22:46:43.561Z,100064.94
2023-01-23T22:49:13.158Z,100063.72
2023-01-23T22:51:41.219Z,100066.44
2023-01-23T22:54:09.562Z,100062.91
2023-01-23T22:56:37.652Z,100065.31
2023-01-23T22:59:05.935Z,100060.97
2023-01-23T23:01:34.067Z,100070.78
2023-01-23T23:04:02.309Z,100073.50
2023-01-23T23:06:31.843Z,100070.78
2023-01-23T23:09:00.047Z,100070.16
2023-01-23T23:11:29.533Z,100067.41
2023-01-23T23:13:58.801Z,100065.44
2023-01-23T23:16:31.048Z,100068.44
2023-01-23T23:19:01.673Z,100063.00
2023-01-23T23:21:35.718Z,100067.34
2023-01-23T23:24:05.503Z,100064.56
2023-01-23T23:26:33.911Z,100061.84
2023-01-23T23:29:02.846Z,100065.34
2023-01-23T23:31:31.704Z,100058.69
2023-01-23T23:34:00.073Z,100067.31
2023-01-23T23:36:28.702Z,100066.09
2023-01-23T23:38:58.263Z,100073.13
2023-01-23T23:41:26.539Z,100069.22
2023-01-23T23:43:54.723Z,100066.16
2023-01-23T23:46:22.829Z,100059.47
2023-01-23T23:48:51.068Z,100065.66
2023-01-23T23:51:20.075Z,100063.34
2023-01-23T23:53:48.347Z,100060.69
2023-01-23T23:56:22.071Z,100067.72
2023-01-23T23:58:50.768Z,100057.91
